createdAt,value
2017-01-10T13:32:10.813Z,1002.08
2017-01-10T13:33:14.266Z,1002.04
2017-01-10T13:34:17.719Z,1002.07
2017-01-10T13:35:21.176Z,1002.12
2017-01-10T13:36:24.629Z,1002.1
2017-01-10T13:37:28.083Z,1002.13
2017-01-10T13:38:31.546Z,1002.11
2017-01-10T13:39:35.022Z,1002.11
2017-01-10T13:40:38.480Z,1002.14
2017-01-10T13:41:41.923Z,1002.13
2017-01-10T13:42:45.385Z,1002.12
2017-01-10T13:43:48.841Z,1002.12
2017-01-10T13:44:52.284Z,1002.09
2017-01-10T13:45:55.725Z,1002.12
2017-01-10T13:46:59.167Z,1002.1
2017-01-10T13:48:29.690Z,1002.13
2017-01-10T13:49:33.145Z,1002.12
2017-01-10T13:52:04.597Z,1002.12
2017-01-10T13:53:08.086Z,1002.17
2017-01-10T13:54:11.570Z,1002.16
2017-01-10T13:55:15.023Z,1002.11
2017-01-10T13:56:18.476Z,1002.17
2017-01-10T13:57:21.932Z,1002.19
2017-01-10T13:58:26.189Z,1002.16
2017-01-10T13:59:29.642Z,1002.2
2017-01-10T14:00:33.104Z,1002.17
2017-01-10T14:01:36.552Z,1002.21
2017-01-10T14:02:39.996Z,1002.27
2017-01-10T14:03:43.464Z,1002.26
2017-01-10T14:06:16.256Z,1002.27
2017-01-10T14:07:19.705Z,1002.28
2017-01-10T14:08:23.152Z,1002.28
2017-01-10T14:09:26.614Z,1002.33
2017-01-10T14:10:30.072Z,1002.31
2017-01-10T14:11:33.526Z,1002.32
2017-01-10T14:12:36.972Z,1002.29
2017-01-10T14:13:40.424Z,1002.31
2017-01-10T14:14:43.884Z,1002.3
2017-01-10T14:15:47.337Z,1002.33
2017-01-10T14:16:50.791Z,1002.34
2017-01-10T14:17:54.248Z,1002.42
2017-01-10T14:20:25.902Z,1002.5
2017-01-10T14:21:29.352Z,1002.55
2017-01-10T14:22:32.809Z,1002.54
2017-01-10T14:23:36.269Z,1002.55
2017-01-10T14:24:39.727Z,1002.57
2017-01-10T14:27:11.389Z,1002.62
2017-01-10T14:28:14.866Z,1002.6
2017-01-10T14:29:18.323Z,1002.59
2017-01-10T14:30:21.767Z,1002.6
2017-01-10T14:31:25.218Z,1002.62
2017-01-10T14:32:28.674Z,1002.64
2017-01-10T14:33:32.116Z,1002.67
2017-01-10T14:34:35.582Z,1002.68
2017-01-10T14:35:39.032Z,1002.66
2017-01-10T14:36:42.472Z,1002.69
2017-01-10T14:37:45.922Z,1002.71
2017-01-10T14:38:49.368Z,1002.74
2017-01-10T14:39:52.826Z,1002.77
2017-01-10T14:40:56.283Z,1002.78
2017-01-10T14:41:59.733Z,1002.77
2017-01-10T14:43:03.181Z,1002.83
2017-01-10T14:44:06.630Z,1002.8
2017-01-10T14:45:10.086Z,1002.85
2017-01-10T14:46:13.540Z,1002.85
2017-01-10T14:47:17.005Z,1002.85
2017-01-10T14:48:20.469Z,1002.88
2017-01-10T14:49:23.920Z,1002.87
2017-01-10T14:50:27.394Z,1002.94
2017-01-10T14:51:30.834Z,1002.93
2017-01-10T14:52:34.283Z,1002.91
2017-01-10T14:53:37.745Z,1002.93
2017-01-10T14:54:41.200Z,1003.01
2017-01-10T14:55:44.654Z,1003.02
2017-01-10T14:56:48.114Z,1003.01
2017-01-10T14:57:51.568Z,1003.08
2017-01-10T14:58:55.023Z,1003.12
2017-01-10T14:59:58.482Z,1003.11
2017-01-10T15:01:01.958Z,1003.15
2017-01-10T15:03:35.664Z,1003.18
2017-01-10T15:04:39.136Z,1003.17
2017-01-10T15:05:42.594Z,1003.16
2017-01-10T15:06:46.045Z,1003.19
2017-01-10T15:07:49.518Z,1003.2
2017-01-10T15:08:52.960Z,1003.21
2017-01-10T15:09:56.403Z,1003.23
2017-01-10T15:10:59.877Z,1003.23
2017-01-10T15:12:03.335Z,1003.25
2017-01-10T15:13:06.789Z,1003.28
2017-01-10T15:14:10.241Z,1003.32
2017-01-10T15:15:13.692Z,1003.34
2017-01-10T15:16:17.137Z,1003.34
2017-01-10T15:17:20.598Z,1003.37
2017-01-10T15:18:24.033Z,1003.35
2017-01-10T15:19:27.491Z,1003.35
2017-01-10T15:20:30.946Z,1003.33
2017-01-10T15:21:34.410Z,1003.34
2017-01-10T15:22:37.858Z,1003.36
2017-01-10T15:23:41.328Z,1003.41
2017-01-10T15:24:44.786Z,1003.42
2017-01-10T15:25:48.236Z,1003.41
2017-01-10T15:26:51.690Z,1003.42
2017-01-10T15:27:55.139Z,1003.43
2017-01-10T15:28:58.580Z,1003.45
2017-01-10T15:30:02.056Z,1003.45
2017-01-10T15:31:05.521Z,1003.43
2017-01-10T15:32:08.967Z,1003.44
2017-01-10T15:34:40.665Z,1003.46
2017-01-10T15:35:44.121Z,1003.43
2017-01-10T15:36:47.575Z,1003.45
2017-01-10T15:37:51.038Z,1003.46
2017-01-10T15:38:54.484Z,1003.49
2017-01-10T15:39:57.928Z,1003.51
2017-01-10T15:41:01.382Z,1003.52
2017-01-10T15:42:04.828Z,1003.58
2017-01-10T15:43:08.279Z,1003.59
2017-01-10T15:44:11.727Z,1003.58
2017-01-10T15:45:15.173Z,1003.62
2017-01-10T15:46:18.633Z,1003.63
2017-01-10T15:47:22.083Z,1003.66
2017-01-10T15:48:25.534Z,1003.67
2017-01-10T15:49:28.998Z,1003.66
2017-01-10T15:50:32.457Z,1003.7
2017-01-10T15:51:35.914Z,1003.72
2017-01-10T15:52:39.377Z,1003.75
2017-01-10T15:53:42.835Z,1003.75
2017-01-10T15:54:46.280Z,1003.78
2017-01-10T15:55:49.735Z,1003.82
2017-01-10T15:56:53.189Z,1003.8
2017-01-10T15:57:56.638Z,1003.84
2017-01-10T15:59:00.091Z,1003.85
2017-01-10T16:00:03.543Z,1003.86
2017-01-10T16:01:06.991Z,1003.86
2017-01-10T16:02:10.453Z,1003.87
2017-01-10T16:03:14.744Z,1003.91
2017-01-10T16:04:43.856Z,1003.96
2017-01-10T16:05:47.314Z,1004
2017-01-10T16:06:50.757Z,1004.04
2017-01-10T16:07:54.211Z,1004.07
2017-01-10T16:08:57.660Z,1004.03
2017-01-10T16:10:01.100Z,1004.1
2017-01-10T16:11:04.557Z,1004.13
2017-01-10T16:12:08.002Z,1004.19
2017-01-10T16:13:11.455Z,1004.17
2017-01-10T16:14:14.911Z,1004.2
2017-01-10T16:15:18.357Z,1004.21
2017-01-10T16:16:21.813Z,1004.2
2017-01-10T16:17:25.260Z,1004.22
2017-01-10T16:18:28.720Z,1004.28
2017-01-10T16:19:32.169Z,1004.27
2017-01-10T16:20:35.625Z,1004.25
2017-01-10T16:21:39.072Z,1004.25
2017-01-10T16:24:10.163Z,1004.28
2017-01-10T16:25:13.608Z,1004.3
2017-01-10T16:26:17.061Z,1004.3
2017-01-10T16:27:20.511Z,1004.29
2017-01-10T16:28:23.954Z,1004.32
2017-01-10T16:29:27.417Z,1004.31
2017-01-10T16:30:30.863Z,1004.33
2017-01-10T16:31:34.312Z,1004.32
2017-01-10T16:32:37.769Z,1004.31
2017-01-10T16:33:41.207Z,1004.28
2017-01-10T16:34:44.659Z,1004.27
2017-01-10T16:35:48.109Z,1004.25
2017-01-10T16:36:51.556Z,1004.27
2017-01-10T16:37:55.022Z,1004.34
2017-01-10T16:38:58.470Z,1004.38
2017-01-10T16:40:01.918Z,1004.36
2017-01-10T16:41:05.375Z,1004.37
2017-01-10T16:42:08.825Z,1004.39
2017-01-10T16:43:12.274Z,1004.35
2017-01-10T16:44:15.739Z,1004.35
2017-01-10T16:45:19.192Z,1004.34
2017-01-10T16:46:22.637Z,1004.37
2017-01-10T16:47:26.102Z,1004.37
2017-01-10T16:48:29.549Z,1004.34
2017-01-10T16:49:33.001Z,1004.38
2017-01-10T16:50:36.463Z,1004.41
2017-01-10T16:51:39.914Z,1004.4
2017-01-10T16:52:43.368Z,1004.42
2017-01-10T16:53:46.831Z,1004.43
2017-01-10T16:54:50.283Z,1004.41
2017-01-10T16:55:53.726Z,1004.43
2017-01-10T16:56:57.186Z,1004.4
2017-01-10T16:58:00.635Z,1004.43
2017-01-10T16:59:04.080Z,1004.45
2017-01-10T17:00:07.535Z,1004.49
2017-01-10T17:01:10.982Z,1004.46
2017-01-10T17:02:14.433Z,1004.49
2017-01-10T17:03:17.882Z,1004.5
2017-01-10T17:04:21.340Z,1004.5
2017-01-10T17:05:24.796Z,1004.52
2017-01-10T17:06:28.257Z,1004.53
2017-01-10T17:07:31.698Z,1004.56
2017-01-10T17:08:35.156Z,1004.58
2017-01-10T17:09:38.605Z,1004.58
2017-01-10T17:10:42.052Z,1004.59
2017-01-10T17:11:45.513Z,1004.6
2017-01-10T17:12:48.951Z,1004.61
2017-01-10T17:13:52.398Z,1004.64
2017-01-10T17:14:55.854Z,1004.62
2017-01-10T17:15:59.296Z,1004.64
2017-01-10T17:17:02.752Z,1004.62
2017-01-10T17:18:06.201Z,1004.63
2017-01-10T17:19:09.643Z,1004.61
2017-01-10T17:20:13.104Z,1004.63
2017-01-10T17:21:16.552Z,1004.61
2017-01-10T17:22:19.999Z,1004.65
2017-01-10T17:23:23.464Z,1004.61
2017-01-10T17:24:26.914Z,1004.59
2017-01-10T17:25:30.358Z,1004.59
2017-01-10T17:26:33.824Z,1004.63
2017-01-10T17:27:37.275Z,1004.66
2017-01-10T17:28:40.721Z,1004.66
2017-01-10T17:29:44.188Z,1004.65
2017-01-10T17:30:47.637Z,1004.63
2017-01-10T17:31:51.082Z,1004.62
2017-01-10T17:32:54.534Z,1004.62
2017-01-10T17:33:57.978Z,1004.63
2017-01-10T17:35:01.429Z,1004.57
2017-01-10T17:36:04.877Z,1004.59
2017-01-10T17:37:08.319Z,1004.61
2017-01-10T17:38:11.775Z,1004.63
2017-01-10T17:39:15.213Z,1004.63
2017-01-10T17:40:18.669Z,1004.63
2017-01-10T17:41:22.120Z,1004.7
2017-01-10T17:42:25.573Z,1004.71
2017-01-10T17:43:29.025Z,1004.7
2017-01-10T17:44:32.473Z,1004.72
2017-01-10T17:45:35.915Z,1004.74
2017-01-10T17:46:39.382Z,1004.72
2017-01-10T17:47:42.829Z,1004.74
2017-01-10T17:48:46.279Z,1004.74
2017-01-10T17:49:49.743Z,1004.75
2017-01-10T17:50:53.194Z,1004.76
2017-01-10T17:51:56.642Z,1004.76
2017-01-10T17:53:00.104Z,1004.8
2017-01-10T17:54:03.551Z,1004.81
2017-01-10T17:55:06.999Z,1004.8
2017-01-10T17:56:10.454Z,1004.8
2017-01-10T17:57:13.894Z,1004.75
2017-01-10T17:58:17.346Z,1004.76
2017-01-10T17:59:20.804Z,1004.76
2017-01-10T18:00:24.254Z,1004.75
2017-01-10T18:01:27.706Z,1004.78
2017-01-10T18:02:31.155Z,1004.78
2017-01-10T18:03:34.596Z,1004.8
2017-01-10T18:04:38.053Z,1004.81
2017-01-10T18:05:41.502Z,1004.77
2017-01-10T18:06:44.956Z,1004.77
2017-01-10T18:07:48.434Z,1004.81
2017-01-10T18:08:51.898Z,1004.81
2017-01-10T18:09:55.353Z,1004.82
2017-01-10T18:10:58.810Z,1004.83
2017-01-10T18:12:02.281Z,1004.83
2017-01-10T18:13:05.746Z,1004.83
2017-01-10T18:14:09.201Z,1004.83
2017-01-10T18:15:12.667Z,1004.84
2017-01-10T18:16:16.131Z,1004.87
2017-01-10T18:17:19.599Z,1004.84
2017-01-10T18:18:23.040Z,1004.91
2017-01-10T18:19:26.492Z,1004.92
2017-01-10T18:20:29.943Z,1004.89
2017-01-10T18:21:33.386Z,1004.93
2017-01-10T18:22:36.848Z,1004.91
2017-01-10T18:23:40.298Z,1004.89
2017-01-10T18:24:43.743Z,1004.87
2017-01-10T18:25:47.210Z,1004.87
2017-01-10T18:26:50.660Z,1004.93
2017-01-10T18:27:54.104Z,1004.94
2017-01-10T18:28:57.571Z,1004.93
2017-01-10T18:30:01.020Z,1005
2017-01-10T18:31:04.465Z,1005
2017-01-10T18:32:07.917Z,1004.96
2017-01-10T18:33:11.361Z,1004.98
2017-01-10T18:34:14.814Z,1004.97
2017-01-10T18:35:18.261Z,1005.01
2017-01-10T18:36:21.700Z,1005
2017-01-10T18:37:25.155Z,1004.99
2017-01-10T18:38:28.596Z,1005
2017-01-10T18:39:32.049Z,1005
2017-01-10T18:40:35.501Z,1004.97
2017-01-10T18:41:38.943Z,1004.92
2017-01-10T18:42:42.412Z,1004.94
2017-01-10T18:43:45.851Z,1004.95
2017-01-10T18:44:49.298Z,1004.95
2017-01-10T18:45:52.753Z,1004.99
2017-01-10T18:46:56.194Z,1005.03
2017-01-10T18:47:59.647Z,1004.97
2017-01-10T18:49:03.094Z,1005.01
2017-01-10T18:50:06.534Z,1005.01
2017-01-10T18:51:10.001Z,1005
2017-01-10T18:52:13.448Z,1004.99
2017-01-10T18:53:16.896Z,1004.98
2017-01-10T18:54:20.351Z,1005
2017-01-10T18:55:23.792Z,1005
2017-01-10T18:56:27.244Z,1005
2017-01-10T18:57:30.692Z,1004.95
2017-01-10T18:58:34.137Z,1005.02
2017-01-10T18:59:37.599Z,1005.03
2017-01-10T19:00:41.048Z,1005.02
2017-01-10T19:01:44.491Z,1005.06
2017-01-10T19:02:47.946Z,1005.06
2017-01-10T19:03:51.389Z,1005.07
2017-01-10T19:04:54.842Z,1005.07
2017-01-10T19:05:58.291Z,1005.15
2017-01-10T19:07:01.737Z,1005.16
2017-01-10T19:08:05.198Z,1005.19
2017-01-10T19:09:08.646Z,1005.22
2017-01-10T19:10:12.092Z,1005.19
2017-01-10T19:11:15.560Z,1005.16
2017-01-10T19:12:19.009Z,1005.13
2017-01-10T19:13:22.453Z,1005.1
2017-01-10T19:14:25.907Z,1005.14
2017-01-10T19:15:29.349Z,1005.1
2017-01-10T19:16:32.807Z,1005.13
2017-01-10T19:17:36.260Z,1005.14
2017-01-10T19:18:39.710Z,1005.12
2017-01-10T19:19:43.163Z,1005.14
2017-01-10T19:20:46.610Z,1005.11
2017-01-10T19:21:50.052Z,1005.15
2017-01-10T19:22:53.518Z,1005.16
2017-01-10T19:23:56.968Z,1005.17
2017-01-10T19:25:00.411Z,1005.2
2017-01-10T19:26:03.879Z,1005.23
2017-01-10T19:27:07.330Z,1005.29
2017-01-10T19:28:10.775Z,1005.27
2017-01-10T19:29:14.241Z,1005.28
2017-01-10T19:30:17.692Z,1005.26
2017-01-10T19:31:21.141Z,1005.25
2017-01-10T19:32:24.603Z,1005.24
2017-01-10T19:33:28.056Z,1005.19
2017-01-10T19:34:31.507Z,1005.15
2017-01-10T19:35:34.965Z,1005.16
2017-01-10T19:36:38.414Z,1005.16
2017-01-10T19:37:41.864Z,1005.14
2017-01-10T19:38:45.326Z,1005.2
2017-01-10T19:39:48.778Z,1005.11
2017-01-10T19:40:52.226Z,1005.16
2017-01-10T19:41:55.687Z,1005.15
2017-01-10T19:42:59.139Z,1005.12
2017-01-10T19:44:02.589Z,1005.16
2017-01-10T19:45:06.048Z,1005.16
2017-01-10T19:46:09.501Z,1005.17
2017-01-10T19:47:12.947Z,1005.16
2017-01-10T19:48:16.419Z,1005.18
2017-01-10T19:49:19.871Z,1005.17
2017-01-10T19:50:23.318Z,1005.15
2017-01-10T19:51:26.779Z,1005.14
2017-01-10T19:52:30.234Z,1005.13
2017-01-10T19:53:33.678Z,1005.12
2017-01-10T19:54:37.140Z,1005.08
2017-01-10T19:55:40.593Z,1005.07
2017-01-10T19:56:44.039Z,1004.99
2017-01-10T19:57:47.503Z,1005.05
2017-01-10T19:58:50.949Z,1005.04
2017-01-10T19:59:54.391Z,1005.04
2017-01-10T20:00:57.858Z,1005
2017-01-10T20:02:01.307Z,1005.05
2017-01-10T20:03:04.753Z,1005.02
2017-01-10T20:04:08.220Z,1005.04
2017-01-10T20:05:11.670Z,1005.02
2017-01-10T20:06:15.113Z,1005.02
2017-01-10T20:07:18.581Z,1005.01
2017-01-10T20:08:22.027Z,1005.02
2017-01-10T20:09:25.476Z,1005.01
2017-01-10T20:10:28.943Z,1005.05
2017-01-10T20:11:32.393Z,1005.01
2017-01-10T20:12:35.838Z,1005.02
2017-01-10T20:13:39.305Z,1005
2017-01-10T20:14:42.753Z,1005
2017-01-10T20:15:46.199Z,1005.03
2017-01-10T20:16:49.667Z,1005.03
2017-01-10T20:17:53.117Z,1005.06
2017-01-10T20:18:56.567Z,1005.09
2017-01-10T20:20:00.027Z,1005.11
2017-01-10T20:21:03.479Z,1005.13
2017-01-10T20:22:06.929Z,1005.17
2017-01-10T20:23:10.389Z,1005.18
2017-01-10T20:24:13.839Z,1005.17
2017-01-10T20:25:17.291Z,1005.21
2017-01-10T20:26:20.757Z,1005.19
2017-01-10T20:27:24.223Z,1005.19
2017-01-10T20:28:27.687Z,1005.2
2017-01-10T20:29:31.155Z,1005.21
2017-01-10T20:30:34.620Z,1005.19
2017-01-10T20:31:38.095Z,1005.25
2017-01-10T20:32:41.554Z,1005.27
2017-01-10T20:33:45.025Z,1005.31
2017-01-10T20:34:48.481Z,1005.3
2017-01-10T20:35:51.948Z,1005.31
2017-01-10T20:36:55.410Z,1005.28
2017-01-10T20:37:58.853Z,1005.34
2017-01-10T20:39:02.312Z,1005.34
2017-01-10T20:40:05.763Z,1005.38
2017-01-10T20:41:09.213Z,1005.39
2017-01-10T20:42:12.667Z,1005.42
2017-01-10T20:43:16.124Z,1005.44
2017-01-10T20:44:19.575Z,1005.47
2017-01-10T20:45:23.036Z,1005.47
2017-01-10T20:46:26.516Z,1005.48
2017-01-10T20:47:29.957Z,1005.43
2017-01-10T20:48:33.417Z,1005.38
2017-01-10T20:49:36.878Z,1005.36
2017-01-10T20:50:40.333Z,1005.35
2017-01-10T20:51:43.784Z,1005.38
2017-01-10T20:52:47.238Z,1005.34
2017-01-10T20:53:50.689Z,1005.37
2017-01-10T20:54:54.133Z,1005.41
2017-01-10T20:55:57.593Z,1005.41
2017-01-10T20:57:01.042Z,1005.45
2017-01-10T20:58:04.486Z,1005.42
2017-01-10T20:59:07.940Z,1005.4
2017-01-10T21:00:11.382Z,1005.37
2017-01-10T21:01:14.834Z,1005.41
2017-01-10T21:02:18.288Z,1005.39
2017-01-10T21:03:21.734Z,1005.36
2017-01-10T21:04:25.207Z,1005.33
2017-01-10T21:05:28.662Z,1005.29
2017-01-10T21:06:32.105Z,1005.27
2017-01-10T21:07:35.557Z,1005.28
2017-01-10T21:08:39.005Z,1005.26
2017-01-10T21:09:42.447Z,1005.3
2017-01-10T21:10:45.912Z,1005.28
2017-01-10T21:11:49.359Z,1005.3
2017-01-10T21:12:52.808Z,1005.31
2017-01-10T21:13:56.273Z,1005.3
2017-01-10T21:14:59.722Z,1005.33
2017-01-10T21:16:03.167Z,1005.32
2017-01-10T21:17:06.636Z,1005.3
2017-01-10T21:18:10.084Z,1005.32
2017-01-10T21:19:13.533Z,1005.32
2017-01-10T21:20:16.998Z,1005.34
2017-01-10T21:21:20.445Z,1005.36
2017-01-10T21:22:23.896Z,1005.39
2017-01-10T21:23:27.359Z,1005.37
2017-01-10T21:24:30.805Z,1005.44
2017-01-10T21:25:34.254Z,1005.45
2017-01-10T21:26:37.720Z,1005.44
2017-01-10T21:27:41.168Z,1005.43
2017-01-10T21:28:44.615Z,1005.43
2017-01-10T21:29:48.083Z,1005.45
2017-01-10T21:30:51.533Z,1005.48
2017-01-10T21:31:54.976Z,1005.45
2017-01-10T21:32:58.443Z,1005.5
2017-01-10T21:34:01.893Z,1005.53
2017-01-10T21:35:05.339Z,1005.5
2017-01-10T21:36:08.804Z,1005.5
2017-01-10T21:37:12.254Z,1005.51
2017-01-10T21:38:15.700Z,1005.53
2017-01-10T21:39:19.167Z,1005.55
2017-01-10T21:40:22.614Z,1005.59
2017-01-10T21:41:26.069Z,1005.55
2017-01-10T21:42:29.536Z,1005.61
2017-01-10T21:43:32.988Z,1005.58
2017-01-10T21:44:36.432Z,1005.6
2017-01-10T21:45:39.896Z,1005.67
2017-01-10T21:46:43.347Z,1005.7
2017-01-10T21:47:46.787Z,1005.68
2017-01-10T21:48:50.243Z,1005.72
2017-01-10T21:49:53.680Z,1005.72
2017-01-10T21:50:57.133Z,1005.73
2017-01-10T21:52:00.583Z,1005.76
2017-01-10T21:53:04.028Z,1005.76
2017-01-10T21:54:07.488Z,1005.78
2017-01-10T21:55:10.937Z,1005.8
2017-01-10T21:56:14.382Z,1005.77
2017-01-10T21:57:17.848Z,1005.77
2017-01-10T21:58:21.298Z,1005.79
2017-01-10T21:59:24.743Z,1005.77
2017-01-10T22:00:28.211Z,1005.77
2017-01-10T22:01:31.661Z,1005.77
2017-01-10T22:02:35.103Z,1005.8
2017-01-10T22:03:38.573Z,1005.8
2017-01-10T22:04:42.020Z,1005.82
2017-01-10T22:05:45.467Z,1005.78
2017-01-10T22:06:48.934Z,1005.77
2017-01-10T22:07:52.380Z,1005.76
2017-01-10T22:08:55.828Z,1005.67
2017-01-10T22:09:59.295Z,1005.68
2017-01-10T22:11:02.743Z,1005.67
2017-01-10T22:12:06.189Z,1005.65
2017-01-10T22:13:10.387Z,1005.66
2017-01-10T22:14:40.357Z,1005.65
2017-01-10T22:15:43.811Z,1005.67
2017-01-10T22:16:47.264Z,1005.7
2017-01-10T22:17:50.707Z,1005.72
2017-01-10T22:18:54.151Z,1005.71
2017-01-10T22:19:57.603Z,1005.69
2017-01-10T22:21:01.045Z,1005.74
2017-01-10T22:22:04.498Z,1005.75
2017-01-10T22:23:07.943Z,1005.76
2017-01-10T22:24:11.385Z,1005.73
2017-01-10T22:25:14.853Z,1005.7
2017-01-10T22:26:18.300Z,1005.73
2017-01-10T22:27:21.746Z,1005.72
2017-01-10T22:28:25.198Z,1005.7
2017-01-10T22:29:28.642Z,1005.75
2017-01-10T22:30:32.095Z,1005.78
2017-01-10T22:31:35.539Z,1005.84
2017-01-10T22:32:38.982Z,1005.85
2017-01-10T22:33:42.435Z,1005.82
2017-01-10T22:34:45.878Z,1005.81
2017-01-10T22:35:49.331Z,1005.75
2017-01-10T22:36:52.780Z,1005.79
2017-01-10T22:37:56.224Z,1005.85
2017-01-10T22:38:59.685Z,1005.82
2017-01-10T22:40:03.131Z,1005.83
2017-01-10T22:41:06.579Z,1005.87
2017-01-10T22:42:10.783Z,1005.87
2017-01-10T22:43:14.238Z,1005.92
2017-01-10T22:44:17.680Z,1005.86
2017-01-10T22:45:21.133Z,1005.83
2017-01-10T22:46:24.580Z,1005.83
2017-01-10T22:47:28.027Z,1005.83
2017-01-10T22:48:31.488Z,1005.82
2017-01-10T22:49:34.938Z,1005.82
2017-01-10T22:50:38.382Z,1005.76
2017-01-10T22:51:41.856Z,1005.79
2017-01-10T22:52:45.306Z,1005.79
2017-01-10T22:53:48.751Z,1005.75
2017-01-10T22:54:52.212Z,1005.66
2017-01-10T22:55:55.660Z,1005.59
2017-01-10T22:56:59.104Z,1005.58
2017-01-10T22:58:02.558Z,1005.6
2017-01-10T22:59:06.001Z,1005.62
2017-01-10T23:00:09.454Z,1005.59
2017-01-10T23:01:12.902Z,1005.61
2017-01-10T23:02:16.348Z,1005.6
2017-01-10T23:03:19.809Z,1005.59
2017-01-10T23:04:23.257Z,1005.58
2017-01-10T23:05:26.705Z,1005.64
2017-01-10T23:06:30.170Z,1005.65
2017-01-10T23:07:33.618Z,1005.66
2017-01-10T23:08:37.064Z,1005.64
2017-01-10T23:09:40.518Z,1005.65
2017-01-10T23:10:43.960Z,1005.65
2017-01-10T23:11:47.413Z,1005.63
2017-01-10T23:12:50.862Z,1005.65
2017-01-10T23:13:54.307Z,1005.62
2017-01-10T23:14:57.768Z,1005.66
2017-01-10T23:16:01.216Z,1005.67
2017-01-10T23:17:04.665Z,1005.61
2017-01-10T23:18:08.131Z,1005.59
2017-01-10T23:19:11.579Z,1005.59
2017-01-10T23:20:15.024Z,1005.54
2017-01-10T23:21:18.480Z,1005.55
2017-01-10T23:22:21.920Z,1005.52
2017-01-10T23:23:25.372Z,1005.52
2017-01-10T23:24:28.826Z,1005.47
2017-01-10T23:25:32.271Z,1005.47
2017-01-10T23:26:35.735Z,1005.46
2017-01-10T23:27:39.183Z,1005.46
2017-01-10T23:28:42.629Z,1005.49
2017-01-10T23:29:46.090Z,1005.57
2017-01-10T23:30:49.537Z,1005.55
2017-01-10T23:31:52.985Z,1005.64
2017-01-10T23:32:56.443Z,1005.68
2017-01-10T23:33:59.883Z,1005.76
2017-01-10T23:35:03.332Z,1005.82
2017-01-10T23:36:06.779Z,1005.84
2017-01-10T23:37:10.221Z,1005.86
2017-01-10T23:38:13.689Z,1005.9
2017-01-10T23:39:17.135Z,1005.86
2017-01-10T23:40:20.581Z,1005.84
2017-01-10T23:41:24.034Z,1005.84
2017-01-10T23:42:27.478Z,1005.82
2017-01-10T23:43:30.930Z,1005.79
2017-01-10T23:44:34.379Z,1005.8
2017-01-10T23:45:37.831Z,1005.85
2017-01-10T23:46:41.293Z,1005.8
2017-01-10T23:47:44.740Z,1005.77
2017-01-10T23:48:48.184Z,1005.76
2017-01-10T23:49:51.638Z,1005.74
2017-01-10T23:50:55.081Z,1005.73
2017-01-10T23:51:58.540Z,1005.7
2017-01-10T23:53:01.995Z,1005.71
2017-01-10T23:54:05.437Z,1005.67
2017-01-10T23:55:08.892Z,1005.62
2017-01-10T23:56:12.334Z,1005.57
2017-01-10T23:57:15.779Z,1005.56
2017-01-10T23:58:19.246Z,1005.6
2017-01-10T23:59:22.694Z,1005.59
